sensor_id;sensor_type;location;lat;lon;timestamp;temperature;humidity
25732;DHT22;13585;50.864;4.406;2022-08-21T00:01:26;27.70;45.80
25732;DHT22;13585;50.864;4.406;2022-08-21T00:03:54;27.70;45.80
25732;DHT22;13585;50.864;4.406;2022-08-21T00:06:21;27.70;45.80
25732;DHT22;13585;50.864;4.406;2022-08-21T00:08:48;27.70;45.80
25732;DHT22;13585;50.864;4.406;2022-08-21T00:11:14;27.70;45.90
25732;DHT22;13585;50.864;4.406;2022-08-21T00:13:43;27.60;45.80
25732;DHT22;13585;50.864;4.406;2022-08-21T00:16:09;27.70;45.90
25732;DHT22;13585;50.864;4.406;2022-08-21T00:18:35;27.70;45.80
25732;DHT22;13585;50.864;4.406;2022-08-21T00:21:01;27.70;45.90
25732;DHT22;13585;50.864;4.406;2022-08-21T00:23:27;27.70;45.90
25732;DHT22;13585;50.864;4.406;2022-08-21T00:25:53;27.70;45.90
25732;DHT22;13585;50.864;4.406;2022-08-21T00:28:19;27.70;45.90
25732;DHT22;13585;50.864;4.406;2022-08-21T00:30:45;27.70;45.90
25732;DHT22;13585;50.864;4.406;2022-08-21T00:33:14;27.70;45.80
25732;DHT22;13585;50.864;4.406;2022-08-21T00:35:42;27.70;46.00
25732;DHT22;13585;50.864;4.406;2022-08-21T00:38:12;27.70;45.90
25732;DHT22;13585;50.864;4.406;2022-08-21T00:40:43;27.60;45.80
25732;DHT22;13585;50.864;4.406;2022-08-21T00:43:14;27.60;45.90
25732;DHT22;13585;50.864;4.406;2022-08-21T00:45:43;27.60;45.80
25732;DHT22;13585;50.864;4.406;2022-08-21T00:48:10;27.60;45.90
25732;DHT22;13585;50.864;4.406;2022-08-21T00:50:45;27.60;45.90
25732;DHT22;13585;50.864;4.406;2022-08-21T00:53:12;27.60;46.00
25732;DHT22;13585;50.864;4.406;2022-08-21T00:55:39;27.70;46.00
25732;DHT22;13585;50.864;4.406;2022-08-21T00:58:08;27.60;45.90
25732;DHT22;13585;50.864;4.406;2022-08-21T01:00:47;27.60;45.90
25732;DHT22;13585;50.864;4.406;2022-08-21T01:03:22;27.60;46.00
25732;DHT22;13585;50.864;4.406;2022-08-21T01:05:48;27.60;45.90
25732;DHT22;13585;50.864;4.406;2022-08-21T01:08:16;27.70;46.00
25732;DHT22;13585;50.864;4.406;2022-08-21T01:10:43;27.60;45.90
25732;DHT22;13585;50.864;4.406;2022-08-21T01:13:10;27.60;45.90
25732;DHT22;13585;50.864;4.406;2022-08-21T01:15:40;27.60;45.90
25732;DHT22;13585;50.864;4.406;2022-08-21T01:18:10;27.60;45.90
25732;DHT22;13585;50.864;4.406;2022-08-21T01:20:38;27.60;45.90
25732;DHT22;13585;50.864;4.406;2022-08-21T01:23:07;27.60;45.90
25732;DHT22;13585;50.864;4.406;2022-08-21T01:25:33;27.60;46.00
25732;DHT22;13585;50.864;4.406;2022-08-21T01:28:04;27.60;46.00
25732;DHT22;13585;50.864;4.406;2022-08-21T01:30:39;27.60;46.00
25732;DHT22;13585;50.864;4.406;2022-08-21T01:33:05;27.60;45.90
25732;DHT22;13585;50.864;4.406;2022-08-21T01:35:31;27.60;46.10
25732;DHT22;13585;50.864;4.406;2022-08-21T01:37:57;27.60;46.00
25732;DHT22;13585;50.864;4.406;2022-08-21T01:40:23;27.60;46.00
25732;DHT22;13585;50.864;4.406;2022-08-21T01:42:52;27.60;45.90
25732;DHT22;13585;50.864;4.406;2022-08-21T01:45:19;27.70;46.00
25732;DHT22;13585;50.864;4.406;2022-08-21T01:47:45;27.60;45.90
25732;DHT22;13585;50.864;4.406;2022-08-21T01:50:15;27.60;46.00
25732;DHT22;13585;50.864;4.406;2022-08-21T01:52:42;27.60;46.00
25732;DHT22;13585;50.864;4.406;2022-08-21T01:55:10;27.60;46.00
25732;DHT22;13585;50.864;4.406;2022-08-21T01:57:36;27.60;46.00
25732;DHT22;13585;50.864;4.406;2022-08-21T02:00:06;27.60;46.00
25732;DHT22;13585;50.864;4.406;2022-08-21T02:02:52;27.60;46.00
25732;DHT22;13585;50.864;4.406;2022-08-21T02:05:19;27.50;46.10
25732;DHT22;13585;50.864;4.406;2022-08-21T02:07:48;27.60;45.90
25732;DHT22;13585;50.864;4.406;2022-08-21T02:10:18;27.60;46.00
25732;DHT22;13585;50.864;4.406;2022-08-21T02:12:45;27.60;46.00
25732;DHT22;13585;50.864;4.406;2022-08-21T02:15:15;27.60;46.10
25732;DHT22;13585;50.864;4.406;2022-08-21T02:17:44;27.60;46.20
25732;DHT22;13585;50.864;4.406;2022-08-21T02:20:19;27.60;46.10
25732;DHT22;13585;50.864;4.406;2022-08-21T02:22:48;27.50;46.00
25732;DHT22;13585;50.864;4.406;2022-08-21T02:25:16;27.50;46.00
25732;DHT22;13585;50.864;4.406;2022-08-21T02:27:44;27.50;46.00
25732;DHT22;13585;50.864;4.406;2022-08-21T02:30:20;27.50;46.00
25732;DHT22;13585;50.864;4.406;2022-08-21T02:32:47;27.50;46.10
25732;DHT22;13585;50.864;4.406;2022-08-21T02:35:14;27.50;46.10
25732;DHT22;13585;50.864;4.406;2022-08-21T02:37:58;27.50;46.00
25732;DHT22;13585;50.864;4.406;2022-08-21T02:40:27;27.50;46.20
25732;DHT22;13585;50.864;4.406;2022-08-21T02:42:57;27.50;46.10
25732;DHT22;13585;50.864;4.406;2022-08-21T02:45:24;27.40;46.10
25732;DHT22;13585;50.864;4.406;2022-08-21T02:47:52;27.50;46.20
25732;DHT22;13585;50.864;4.406;2022-08-21T02:50:25;27.50;46.10
25732;DHT22;13585;50.864;4.406;2022-08-21T02:52:51;27.50;46.10
25732;DHT22;13585;50.864;4.406;2022-08-21T02:55:23;27.50;46.10
25732;DHT22;13585;50.864;4.406;2022-08-21T02:57:51;27.50;46.10
25732;DHT22;13585;50.864;4.406;2022-08-21T03:00:17;27.50;46.20
25732;DHT22;13585;50.864;4.406;2022-08-21T03:02:43;27.50;46.20
25732;DHT22;13585;50.864;4.406;2022-08-21T03:05:11;27.50;46.20
25732;DHT22;13585;50.864;4.406;2022-08-21T03:07:37;27.50;46.20
25732;DHT22;13585;50.864;4.406;2022-08-21T03:10:06;27.50;46.30
25732;DHT22;13585;50.864;4.406;2022-08-21T03:12:35;27.50;46.30
25732;DHT22;13585;50.864;4.406;2022-08-21T03:15:06;27.40;46.20
25732;DHT22;13585;50.864;4.406;2022-08-21T03:17:34;27.40;46.20
25732;DHT22;13585;50.864;4.406;2022-08-21T03:20:00;27.50;46.30
25732;DHT22;13585;50.864;4.406;2022-08-21T03:22:27;27.50;46.20
25732;DHT22;13585;50.864;4.406;2022-08-21T03:24:53;27.50;46.30
25732;DHT22;13585;50.864;4.406;2022-08-21T03:27:19;27.50;46.30
25732;DHT22;13585;50.864;4.406;2022-08-21T03:29:45;27.40;46.30
25732;DHT22;13585;50.864;4.406;2022-08-21T03:32:11;27.50;46.40
25732;DHT22;13585;50.864;4.406;2022-08-21T03:34:38;27.50;46.30
25732;DHT22;13585;50.864;4.406;2022-08-21T03:37:06;27.50;46.30
25732;DHT22;13585;50.864;4.406;2022-08-21T03:39:33;27.40;46.20
25732;DHT22;13585;50.864;4.406;2022-08-21T03:41:59;27.40;46.20
25732;DHT22;13585;50.864;4.406;2022-08-21T03:44:26;27.40;46.30
25732;DHT22;13585;50.864;4.406;2022-08-21T03:46:54;27.50;46.40
25732;DHT22;13585;50.864;4.406;2022-08-21T03:49:20;27.40;46.30
25732;DHT22;13585;50.864;4.406;2022-08-21T03:51:45;27.40;46.40
25732;DHT22;13585;50.864;4.406;2022-08-21T03:54:11;27.40;46.40
25732;DHT22;13585;50.864;4.406;2022-08-21T03:56:37;27.50;46.50
25732;DHT22;13585;50.864;4.406;2022-08-21T03:59:05;27.40;46.30
25732;DHT22;13585;50.864;4.406;2022-08-21T04:01:31;27.40;46.30
25732;DHT22;13585;50.864;4.406;2022-08-21T04:03:58;27.40;46.40
25732;DHT22;13585;50.864;4.406;2022-08-21T04:06:25;27.40;46.40
25732;DHT22;13585;50.864;4.406;2022-08-21T04:08:52;27.40;46.30
25732;DHT22;13585;50.864;4.406;2022-08-21T04:11:19;27.40;46.30
25732;DHT22;13585;50.864;4.406;2022-08-21T04:13:45;27.40;46.40
25732;DHT22;13585;50.864;4.406;2022-08-21T04:16:14;27.40;46.40
25732;DHT22;13585;50.864;4.406;2022-08-21T04:18:41;27.40;46.40
25732;DHT22;13585;50.864;4.406;2022-08-21T04:21:09;27.40;46.40
25732;DHT22;13585;50.864;4.406;2022-08-21T04:23:36;27.40;46.30
25732;DHT22;13585;50.864;4.406;2022-08-21T04:26:05;27.40;46.40
25732;DHT22;13585;50.864;4.406;2022-08-21T04:28:32;27.40;46.40
25732;DHT22;13585;50.864;4.406;2022-08-21T04:30:58;27.40;46.50
25732;DHT22;13585;50.864;4.406;2022-08-21T04:33:24;27.40;46.50
25732;DHT22;13585;50.864;4.406;2022-08-21T04:35:53;27.30;46.30
25732;DHT22;13585;50.864;4.406;2022-08-21T04:38:19;27.40;46.40
25732;DHT22;13585;50.864;4.406;2022-08-21T04:40:47;27.40;46.40
25732;DHT22;13585;50.864;4.406;2022-08-21T04:43:14;27.40;46.40
25732;DHT22;13585;50.864;4.406;2022-08-21T04:45:45;27.40;46.40
25732;DHT22;13585;50.864;4.406;2022-08-21T04:48:15;27.40;46.50
25732;DHT22;13585;50.864;4.406;2022-08-21T04:50:52;27.40;47.10
25732;DHT22;13585;50.864;4.406;2022-08-21T04:53:30;27.40;46.40
25732;DHT22;13585;50.864;4.406;2022-08-21T04:56:08;27.30;46.30
25732;DHT22;13585;50.864;4.406;2022-08-21T04:58:37;27.30;46.30
25732;DHT22;13585;50.864;4.406;2022-08-21T05:01:06;27.40;46.40
25732;DHT22;13585;50.864;4.406;2022-08-21T05:03:33;27.40;46.40
25732;DHT22;13585;50.864;4.406;2022-08-21T05:06:01;27.40;46.40
25732;DHT22;13585;50.864;4.406;2022-08-21T05:08:29;27.30;46.40
25732;DHT22;13585;50.864;4.406;2022-08-21T05:10:55;27.30;46.50
25732;DHT22;13585;50.864;4.406;2022-08-21T05:13:21;27.30;46.50
25732;DHT22;13585;50.864;4.406;2022-08-21T05:15:46;27.40;46.60
25732;DHT22;13585;50.864;4.406;2022-08-21T05:18:13;27.30;46.50
25732;DHT22;13585;50.864;4.406;2022-08-21T05:20:39;27.30;46.60
25732;DHT22;13585;50.864;4.406;2022-08-21T05:23:10;27.30;46.60
25732;DHT22;13585;50.864;4.406;2022-08-21T05:25:37;27.30;46.50
25732;DHT22;13585;50.864;4.406;2022-08-21T05:28:04;27.40;46.50
25732;DHT22;13585;50.864;4.406;2022-08-21T05:30:30;27.40;46.50
25732;DHT22;13585;50.864;4.406;2022-08-21T05:33:01;27.30;46.50
25732;DHT22;13585;50.864;4.406;2022-08-21T05:35:28;27.30;46.50
25732;DHT22;13585;50.864;4.406;2022-08-21T05:37:55;27.30;46.40
25732;DHT22;13585;50.864;4.406;2022-08-21T05:40:22;27.30;46.40
25732;DHT22;13585;50.864;4.406;2022-08-21T05:42:52;27.30;46.50
25732;DHT22;13585;50.864;4.406;2022-08-21T05:45:21;27.30;46.40
25732;DHT22;13585;50.864;4.406;2022-08-21T05:47:47;27.30;46.50
25732;DHT22;13585;50.864;4.406;2022-08-21T05:50:13;27.30;46.60
25732;DHT22;13585;50.864;4.406;2022-08-21T05:52:39;27.30;46.60
25732;DHT22;13585;50.864;4.406;2022-08-21T05:55:05;27.30;46.60
25732;DHT22;13585;50.864;4.406;2022-08-21T05:57:32;27.30;46.50
25732;DHT22;13585;50.864;4.406;2022-08-21T05:59:57;27.40;46.70
25732;DHT22;13585;50.864;4.406;2022-08-21T06:02:23;27.30;46.60
25732;DHT22;13585;50.864;4.406;2022-08-21T06:04:49;27.30;46.50
25732;DHT22;13585;50.864;4.406;2022-08-21T06:07:15;27.30;46.50
25732;DHT22;13585;50.864;4.406;2022-08-21T06:09:41;27.30;46.50
25732;DHT22;13585;50.864;4.406;2022-08-21T06:12:09;27.30;46.50
25732;DHT22;13585;50.864;4.406;2022-08-21T06:14:35;27.30;46.40
25732;DHT22;13585;50.864;4.406;2022-08-21T06:17:07;27.30;46.50
25732;DHT22;13585;50.864;4.406;2022-08-21T06:19:33;27.20;46.60
25732;DHT22;13585;50.864;4.406;2022-08-21T06:21:59;27.30;46.50
25732;DHT22;13585;50.864;4.406;2022-08-21T06:24:26;27.30;46.50
25732;DHT22;13585;50.864;4.406;2022-08-21T06:26:52;27.30;46.60
25732;DHT22;13585;50.864;4.406;2022-08-21T06:29:19;27.20;46.70
25732;DHT22;13585;50.864;4.406;2022-08-21T06:31:46;27.30;46.80
25732;DHT22;13585;50.864;4.406;2022-08-21T06:34:13;27.20;46.70
25732;DHT22;13585;50.864;4.406;2022-08-21T06:36:39;27.30;46.80
25732;DHT22;13585;50.864;4.406;2022-08-21T06:39:05;27.20;46.90
25732;DHT22;13585;50.864;4.406;2022-08-21T06:41:31;27.20;46.90
25732;DHT22;13585;50.864;4.406;2022-08-21T06:43:57;27.20;46.80
25732;DHT22;13585;50.864;4.406;2022-08-21T06:46:25;27.10;46.60
25732;DHT22;13585;50.864;4.406;2022-08-21T06:48:51;26.90;46.80
25732;DHT22;13585;50.864;4.406;2022-08-21T06:51:17;26.80;47.10
25732;DHT22;13585;50.864;4.406;2022-08-21T06:53:44;26.80;47.30
25732;DHT22;13585;50.864;4.406;2022-08-21T06:56:10;26.80;47.50
25732;DHT22;13585;50.864;4.406;2022-08-21T06:58:36;26.90;47.60
25732;DHT22;13585;50.864;4.406;2022-08-21T07:01:03;26.90;47.60
25732;DHT22;13585;50.864;4.406;2022-08-21T07:03:36;27.00;47.50
25732;DHT22;13585;50.864;4.406;2022-08-21T07:06:04;27.10;47.50
25732;DHT22;13585;50.864;4.406;2022-08-21T07:08:30;27.10;47.40
25732;DHT22;13585;50.864;4.406;2022-08-21T07:10:59;27.10;47.40
25732;DHT22;13585;50.864;4.406;2022-08-21T07:13:27;27.20;47.40
25732;DHT22;13585;50.864;4.406;2022-08-21T07:15:53;27.20;47.30
25732;DHT22;13585;50.864;4.406;2022-08-21T07:18:19;27.30;47.40
25732;DHT22;13585;50.864;4.406;2022-08-21T07:20:48;27.30;47.30
25732;DHT22;13585;50.864;4.406;2022-08-21T07:23:33;27.30;47.30
25732;DHT22;13585;50.864;4.406;2022-08-21T07:25:59;27.30;47.30
25732;DHT22;13585;50.864;4.406;2022-08-21T07:28:26;27.40;47.20
25732;DHT22;13585;50.864;4.406;2022-08-21T07:30:57;27.40;47.20
25732;DHT22;13585;50.864;4.406;2022-08-21T07:33:25;27.40;47.20
25732;DHT22;13585;50.864;4.406;2022-08-21T07:35:52;27.40;47.20
25732;DHT22;13585;50.864;4.406;2022-08-21T07:38:18;27.50;47.30
25732;DHT22;13585;50.864;4.406;2022-08-21T07:40:45;27.40;47.20
25732;DHT22;13585;50.864;4.406;2022-08-21T07:43:11;27.50;47.30
25732;DHT22;13585;50.864;4.406;2022-08-21T07:45:37;27.50;47.40
25732;DHT22;13585;50.864;4.406;2022-08-21T07:48:04;27.50;47.30
25732;DHT22;13585;50.864;4.406;2022-08-21T07:50:30;27.50;47.30
25732;DHT22;13585;50.864;4.406;2022-08-21T07:52:56;27.50;47.40
25732;DHT22;13585;50.864;4.406;2022-08-21T07:55:22;27.60;47.40
25732;DHT22;13585;50.864;4.406;2022-08-21T07:57:48;27.60;47.40
25732;DHT22;13585;50.864;4.406;2022-08-21T08:00:18;27.60;47.40
25732;DHT22;13585;50.864;4.406;2022-08-21T08:02:46;27.60;47.30
25732;DHT22;13585;50.864;4.406;2022-08-21T08:05:20;27.60;47.30
25732;DHT22;13585;50.864;4.406;2022-08-21T08:07:47;27.60;47.40
25732;DHT22;13585;50.864;4.406;2022-08-21T08:10:13;27.70;47.50
25732;DHT22;13585;50.864;4.406;2022-08-21T08:12:41;27.60;47.40
25732;DHT22;13585;50.864;4.406;2022-08-21T08:15:10;27.60;47.40
25732;DHT22;13585;50.864;4.406;2022-08-21T08:17:37;27.70;47.60
25732;DHT22;13585;50.864;4.406;2022-08-21T08:20:06;27.60;47.50
25732;DHT22;13585;50.864;4.406;2022-08-21T08:22:34;27.60;47.50
25732;DHT22;13585;50.864;4.406;2022-08-21T08:25:00;27.60;47.50
25732;DHT22;13585;50.864;4.406;2022-08-21T08:27:26;27.60;47.60
25732;DHT22;13585;50.864;4.406;2022-08-21T08:29:53;27.70;47.70
25732;DHT22;13585;50.864;4.406;2022-08-21T08:32:19;27.70;47.80
25732;DHT22;13585;50.864;4.406;2022-08-21T08:34:45;27.60;47.60
25732;DHT22;13585;50.864;4.406;2022-08-21T08:37:12;27.70;47.80
25732;DHT22;13585;50.864;4.406;2022-08-21T08:39:38;27.70;47.80
25732;DHT22;13585;50.864;4.406;2022-08-21T08:44:36;27.60;47.60
25732;DHT22;13585;50.864;4.406;2022-08-21T08:47:03;27.70;47.60
25732;DHT22;13585;50.864;4.406;2022-08-21T08:50:03;27.60;47.50
25732;DHT22;13585;50.864;4.406;2022-08-21T08:52:34;27.70;47.60
25732;DHT22;13585;50.864;4.406;2022-08-21T08:55:15;27.70;47.50
25732;DHT22;13585;50.864;4.406;2022-08-21T08:57:45;27.70;47.50
25732;DHT22;13585;50.864;4.406;2022-08-21T09:00:18;27.80;47.50
25732;DHT22;13585;50.864;4.406;2022-08-21T09:02:45;27.80;47.50
25732;DHT22;13585;50.864;4.406;2022-08-21T09:05:24;27.80;47.60
25732;DHT22;13585;50.864;4.406;2022-08-21T09:07:53;27.80;47.60
25732;DHT22;13585;50.864;4.406;2022-08-21T09:13:21;27.80;47.50
25732;DHT22;13585;50.864;4.406;2022-08-21T09:27:10;27.80;48.30
25732;DHT22;13585;50.864;4.406;2022-08-21T09:29:40;27.90;47.70
25732;DHT22;13585;50.864;4.406;2022-08-21T09:32:18;27.90;47.80
25732;DHT22;13585;50.864;4.406;2022-08-21T09:35:19;27.90;47.70
25732;DHT22;13585;50.864;4.406;2022-08-21T09:37:47;27.80;47.70
25732;DHT22;13585;50.864;4.406;2022-08-21T09:40:42;27.90;47.70
25732;DHT22;13585;50.864;4.406;2022-08-21T09:45:41;27.90;47.80
25732;DHT22;13585;50.864;4.406;2022-08-21T09:48:21;27.90;47.70
25732;DHT22;13585;50.864;4.406;2022-08-21T09:50:49;27.80;47.80
25732;DHT22;13585;50.864;4.406;2022-08-21T09:53:21;27.90;47.80
25732;DHT22;13585;50.864;4.406;2022-08-21T09:55:49;27.80;47.90
25732;DHT22;13585;50.864;4.406;2022-08-21T09:58:36;27.90;48.00
25732;DHT22;13585;50.864;4.406;2022-08-21T10:01:15;27.90;47.90
25732;DHT22;13585;50.864;4.406;2022-08-21T10:03:45;27.80;48.10
25732;DHT22;13585;50.864;4.406;2022-08-21T10:06:43;28.00;48.00
25732;DHT22;13585;50.864;4.406;2022-08-21T10:09:20;27.90;48.00
25732;DHT22;13585;50.864;4.406;2022-08-21T10:15:02;27.80;48.30
25732;DHT22;13585;50.864;4.406;2022-08-21T10:18:26;27.90;48.20
25732;DHT22;13585;50.864;4.406;2022-08-21T10:35:49;27.80;48.90
25732;DHT22;13585;50.864;4.406;2022-08-21T10:41:01;27.90;48.10
25732;DHT22;13585;50.864;4.406;2022-08-21T10:47:05;27.90;48.00
25732;DHT22;13585;50.864;4.406;2022-08-21T10:52:56;27.90;48.20
25732;DHT22;13585;50.864;4.406;2022-08-21T10:55:55;27.80;48.20
25732;DHT22;13585;50.864;4.406;2022-08-21T10:58:33;27.90;48.40
25732;DHT22;13585;50.864;4.406;2022-08-21T11:01:28;27.80;48.60
25732;DHT22;13585;50.864;4.406;2022-08-21T11:06:48;27.80;49.00
25732;DHT22;13585;50.864;4.406;2022-08-21T11:09:24;27.90;49.10
25732;DHT22;13585;50.864;4.406;2022-08-21T11:12:05;27.90;49.20
25732;DHT22;13585;50.864;4.406;2022-08-21T11:15:04;27.90;49.10
25732;DHT22;13585;50.864;4.406;2022-08-21T11:17:42;27.90;49.10
25732;DHT22;13585;50.864;4.406;2022-08-21T11:31:34;28.00;48.90
25732;DHT22;13585;50.864;4.406;2022-08-21T11:40:52;27.90;49.00
25732;DHT22;13585;50.864;4.406;2022-08-21T11:46:51;27.90;49.00
25732;DHT22;13585;50.864;4.406;2022-08-21T11:49:53;27.90;49.10
25732;DHT22;13585;50.864;4.406;2022-08-21T11:52:29;27.90;49.10
25732;DHT22;13585;50.864;4.406;2022-08-21T11:55:15;27.90;49.10
25732;DHT22;13585;50.864;4.406;2022-08-21T12:00:49;27.90;49.10
25732;DHT22;13585;50.864;4.406;2022-08-21T12:06:35;27.90;49.10
25732;DHT22;13585;50.864;4.406;2022-08-21T12:12:22;27.90;49.00
25732;DHT22;13585;50.864;4.406;2022-08-21T12:15:03;27.90;49.00
25732;DHT22;13585;50.864;4.406;2022-08-21T12:21:24;27.90;49.00
25732;DHT22;13585;50.864;4.406;2022-08-21T12:24:17;27.90;49.10
25732;DHT22;13585;50.864;4.406;2022-08-21T12:26:57;27.90;49.00
25732;DHT22;13585;50.864;4.406;2022-08-21T12:29:28;28.00;49.10
25732;DHT22;13585;50.864;4.406;2022-08-21T12:32:19;27.90;49.00
25732;DHT22;13585;50.864;4.406;2022-08-21T12:34:54;27.90;48.90
25732;DHT22;13585;50.864;4.406;2022-08-21T12:39:52;27.90;48.90
25732;DHT22;13585;50.864;4.406;2022-08-21T12:42:20;27.90;48.90
25732;DHT22;13585;50.864;4.406;2022-08-21T12:44:53;28.00;48.80
25732;DHT22;13585;50.864;4.406;2022-08-21T12:47:56;27.90;48.60
25732;DHT22;13585;50.864;4.406;2022-08-21T12:50:35;28.00;48.90
25732;DHT22;13585;50.864;4.406;2022-08-21T12:53:34;28.00;48.90
25732;DHT22;13585;50.864;4.406;2022-08-21T12:56:20;28.00;48.90
25732;DHT22;13585;50.864;4.406;2022-08-21T12:59:12;27.90;48.80
25732;DHT22;13585;50.864;4.406;2022-08-21T13:01:50;27.90;48.90
25732;DHT22;13585;50.864;4.406;2022-08-21T13:04:20;28.00;48.80
25732;DHT22;13585;50.864;4.406;2022-08-21T13:06:52;27.90;48.70
25732;DHT22;13585;50.864;4.406;2022-08-21T13:09:28;28.00;48.80
25732;DHT22;13585;50.864;4.406;2022-08-21T13:12:16;27.90;48.70
25732;DHT22;13585;50.864;4.406;2022-08-21T13:14:45;28.00;48.70
25732;DHT22;13585;50.864;4.406;2022-08-21T13:17:14;28.00;48.60
25732;DHT22;13585;50.864;4.406;2022-08-21T13:19:41;28.00;48.60
25732;DHT22;13585;50.864;4.406;2022-08-21T13:22:17;28.00;48.70
25732;DHT22;13585;50.864;4.406;2022-08-21T13:24:47;27.90;48.60
25732;DHT22;13585;50.864;4.406;2022-08-21T13:27:28;28.00;48.50
25732;DHT22;13585;50.864;4.406;2022-08-21T13:30:04;27.90;48.50
25732;DHT22;13585;50.864;4.406;2022-08-21T13:32:31;28.00;48.40
25732;DHT22;13585;50.864;4.406;2022-08-21T13:35:23;28.00;48.30
25732;DHT22;13585;50.864;4.406;2022-08-21T13:37:51;27.90;48.30
25732;DHT22;13585;50.864;4.406;2022-08-21T13:40:26;28.00;48.20
25732;DHT22;13585;50.864;4.406;2022-08-21T13:42:53;28.00;48.20
25732;DHT22;13585;50.864;4.406;2022-08-21T13:45:26;28.00;48.20
25732;DHT22;13585;50.864;4.406;2022-08-21T13:47:53;27.80;48.20
25732;DHT22;13585;50.864;4.406;2022-08-21T13:50:22;28.00;48.20
25732;DHT22;13585;50.864;4.406;2022-08-21T13:53:02;28.00;48.20
25732;DHT22;13585;50.864;4.406;2022-08-21T13:55:42;27.90;48.20
25732;DHT22;13585;50.864;4.406;2022-08-21T13:58:11;28.00;48.20
25732;DHT22;13585;50.864;4.406;2022-08-21T14:04:18;28.00;48.10
25732;DHT22;13585;50.864;4.406;2022-08-21T14:06:45;28.00;47.90
25732;DHT22;13585;50.864;4.406;2022-08-21T14:09:35;28.00;47.80
25732;DHT22;13585;50.864;4.406;2022-08-21T14:12:11;27.90;47.60
25732;DHT22;13585;50.864;4.406;2022-08-21T14:21:40;28.00;46.70
25732;DHT22;13585;50.864;4.406;2022-08-21T14:24:28;28.00;46.60
25732;DHT22;13585;50.864;4.406;2022-08-21T14:27:03;28.00;46.50
25732;DHT22;13585;50.864;4.406;2022-08-21T14:29:41;27.90;46.40
25732;DHT22;13585;50.864;4.406;2022-08-21T14:32:20;28.00;46.40
25732;DHT22;13585;50.864;4.406;2022-08-21T14:34:47;27.90;46.30
25732;DHT22;13585;50.864;4.406;2022-08-21T14:54:20;27.90;45.80
25732;DHT22;13585;50.864;4.406;2022-08-21T14:57:18;27.90;45.80
25732;DHT22;13585;50.864;4.406;2022-08-21T15:10:54;27.90;45.70
25732;DHT22;13585;50.864;4.406;2022-08-21T16:05:52;27.90;45.80
25732;DHT22;13585;50.864;4.406;2022-08-21T16:08:20;27.90;45.80
25732;DHT22;13585;50.864;4.406;2022-08-21T16:24:24;27.90;45.60
25732;DHT22;13585;50.864;4.406;2022-08-21T16:29:56;27.90;45.70
25732;DHT22;13585;50.864;4.406;2022-08-21T16:32:23;27.90;45.70
25732;DHT22;13585;50.864;4.406;2022-08-21T16:34:54;27.80;45.60
25732;DHT22;13585;50.864;4.406;2022-08-21T16:37:39;27.90;45.70
25732;DHT22;13585;50.864;4.406;2022-08-21T16:40:06;27.90;45.60
25732;DHT22;13585;50.864;4.406;2022-08-21T16:42:36;27.90;45.70
25732;DHT22;13585;50.864;4.406;2022-08-21T16:45:05;27.90;45.80
25732;DHT22;13585;50.864;4.406;2022-08-21T16:47:31;27.90;45.80
25732;DHT22;13585;50.864;4.406;2022-08-21T16:49:57;27.90;45.90
25732;DHT22;13585;50.864;4.406;2022-08-21T16:52:23;27.90;46.00
25732;DHT22;13585;50.864;4.406;2022-08-21T16:54:52;27.90;46.10
25732;DHT22;13585;50.864;4.406;2022-08-21T16:57:24;27.90;46.10
25732;DHT22;13585;50.864;4.406;2022-08-21T16:59:50;27.90;46.20
25732;DHT22;13585;50.864;4.406;2022-08-21T17:02:31;27.90;46.30
25732;DHT22;13585;50.864;4.406;2022-08-21T17:04:58;27.80;46.20
25732;DHT22;13585;50.864;4.406;2022-08-21T17:07:25;27.90;46.20
25732;DHT22;13585;50.864;4.406;2022-08-21T17:09:51;27.90;46.30
25732;DHT22;13585;50.864;4.406;2022-08-21T17:12:17;27.90;46.30
25732;DHT22;13585;50.864;4.406;2022-08-21T17:18:24;27.80;46.10
25732;DHT22;13585;50.864;4.406;2022-08-21T17:21:04;27.80;46.10
25732;DHT22;13585;50.864;4.406;2022-08-21T17:34:23;27.90;46.30
25732;DHT22;13585;50.864;4.406;2022-08-21T17:37:47;27.90;46.40
25732;DHT22;13585;50.864;4.406;2022-08-21T17:40:31;27.90;46.60
25732;DHT22;13585;50.864;4.406;2022-08-21T17:46:41;27.80;46.50
25732;DHT22;13585;50.864;4.406;2022-08-21T17:49:07;27.90;46.50
25732;DHT22;13585;50.864;4.406;2022-08-21T17:51:34;27.90;46.70
25732;DHT22;13585;50.864;4.406;2022-08-21T17:54:09;27.90;46.70
25732;DHT22;13585;50.864;4.406;2022-08-21T17:59:55;27.80;46.70
25732;DHT22;13585;50.864;4.406;2022-08-21T18:02:31;27.90;46.70
25732;DHT22;13585;50.864;4.406;2022-08-21T18:05:09;27.80;46.80
25732;DHT22;13585;50.864;4.406;2022-08-21T18:07:35;27.80;46.70
25732;DHT22;13585;50.864;4.406;2022-08-21T18:10:16;27.90;46.90
25732;DHT22;13585;50.864;4.406;2022-08-21T18:12:45;27.90;46.90
25732;DHT22;13585;50.864;4.406;2022-08-21T18:15:16;27.80;46.90
25732;DHT22;13585;50.864;4.406;2022-08-21T18:17:49;27.90;47.00
25732;DHT22;13585;50.864;4.406;2022-08-21T18:22:56;27.90;47.10
25732;DHT22;13585;50.864;4.406;2022-08-21T18:28:10;27.90;47.00
25732;DHT22;13585;50.864;4.406;2022-08-21T18:30:41;27.90;47.10
25732;DHT22;13585;50.864;4.406;2022-08-21T18:33:09;27.90;47.10
25732;DHT22;13585;50.864;4.406;2022-08-21T18:35:36;27.90;47.10
25732;DHT22;13585;50.864;4.406;2022-08-21T18:38:02;27.90;47.10
25732;DHT22;13585;50.864;4.406;2022-08-21T18:40:37;27.90;47.10
25732;DHT22;13585;50.864;4.406;2022-08-21T18:43:06;27.90;47.10
25732;DHT22;13585;50.864;4.406;2022-08-21T18:45:35;27.90;47.00
25732;DHT22;13585;50.864;4.406;2022-08-21T18:48:09;27.80;47.00
25732;DHT22;13585;50.864;4.406;2022-08-21T18:50:37;27.90;47.00
25732;DHT22;13585;50.864;4.406;2022-08-21T18:53:04;27.90;47.00
25732;DHT22;13585;50.864;4.406;2022-08-21T18:55:30;27.90;47.10
25732;DHT22;13585;50.864;4.406;2022-08-21T18:57:57;27.90;47.10
25732;DHT22;13585;50.864;4.406;2022-08-21T19:00:27;27.90;47.10
25732;DHT22;13585;50.864;4.406;2022-08-21T19:03:08;27.90;47.20
25732;DHT22;13585;50.864;4.406;2022-08-21T19:06:00;27.80;47.00
25732;DHT22;13585;50.864;4.406;2022-08-21T19:08:31;27.90;47.10
25732;DHT22;13585;50.864;4.406;2022-08-21T19:11:00;27.90;47.10
25732;DHT22;13585;50.864;4.406;2022-08-21T19:13:29;27.90;47.20
25732;DHT22;13585;50.864;4.406;2022-08-21T19:15:59;27.90;47.30
25732;DHT22;13585;50.864;4.406;2022-08-21T19:18:29;27.90;47.20
25732;DHT22;13585;50.864;4.406;2022-08-21T19:21:00;27.90;47.20
25732;DHT22;13585;50.864;4.406;2022-08-21T19:23:31;27.90;47.30
25732;DHT22;13585;50.864;4.406;2022-08-21T19:29:15;27.80;47.20
25732;DHT22;13585;50.864;4.406;2022-08-21T19:31:49;27.90;47.10
25732;DHT22;13585;50.864;4.406;2022-08-21T19:34:25;27.90;47.20
25732;DHT22;13585;50.864;4.406;2022-08-21T19:37:02;27.90;47.20
25732;DHT22;13585;50.864;4.406;2022-08-21T19:39:29;27.90;47.40